Time;durP1;ratioP1;P1;durP2;ratioP2;P2;SDS_P1;SDS_P2;PMS_P1;PMS_P2;Temp;Humidity;BMP_temperature;BMP_pressure;BME280_temperature;BME280_humidity;BME280_pressure;Samples;Min_cycle;Max_cycle;Signal;HPM_P1;HPM_P2
2022/10/12 00:02:17;;;;;;;9.27;4.82;;;;;;;16.33;56.47;100324.13;4489964;31;35494;-70
2022/10/12 00:04:45;;;;;;;6.20;4.47;;;;;;;16.47;56.04;100321.91;4489247;31;32009;-70
2022/10/12 00:07:13;;;;;;;6.25;3.55;;;;;;;16.53;55.60;100320.47;4491828;31;33844;-71
2022/10/12 00:09:40;;;;;;;5.68;4.25;;;;;;;16.56;55.57;100313.94;4496447;31;33973;-70
2022/10/12 00:12:08;;;;;;;7.47;5.50;;;;;;;16.56;55.63;100319.34;4488749;31;32694;-70
2022/10/12 00:14:36;;;;;;;7.57;4.37;;;;;;;16.54;55.88;100327.63;4487258;31;34359;-69
2022/10/12 00:17:03;;;;;;;8.07;3.83;;;;;;;16.62;55.75;100322.34;4491297;31;32580;-68
2022/10/12 00:19:31;;;;;;;7.47;4.82;;;;;;;16.64;55.65;100319.53;4489324;31;34804;-69
2022/10/12 00:21:58;;;;;;;9.27;4.78;;;;;;;16.66;55.47;100322.91;4494445;31;33450;-68
2022/10/12 00:24:26;;;;;;;17.00;7.60;;;;;;;16.51;55.77;100319.78;4494518;31;33162;-68
2022/10/12 00:26:54;;;;;;;13.95;6.57;;;;;;;16.45;55.94;100320.34;4496523;31;34640;-69
2022/10/12 00:29:21;;;;;;;8.10;5.70;;;;;;;16.30;56.52;100327.97;4484668;31;34973;-68
2022/10/12 00:31:49;;;;;;;8.35;5.47;;;;;;;16.33;56.37;100324.97;4491648;31;34873;-69
2022/10/12 00:34:17;;;;;;;5.32;3.70;;;;;;;16.36;56.15;100332.81;4489645;31;32427;-69
2022/10/12 00:36:44;;;;;;;6.72;4.10;;;;;;;16.30;56.33;100325.25;4493531;31;32679;-69
2022/10/12 00:39:12;;;;;;;6.68;3.95;;;;;;;16.34;56.25;100334.81;4495033;31;34208;-70
2022/10/12 00:41:41;;;;;;;6.65;4.10;;;;;;;16.27;56.06;100320.97;4489903;31;32339;-69
2022/10/12 00:44:37;;;;;;;4.87;3.53;;;;;;;16.20;56.15;100322.53;4483848;31;33390;-70
2022/10/12 00:47:16;;;;;;;3.72;3.35;;;;;;;16.13;56.28;100317.81;4487736;31;33696;-69
2022/10/12 00:50:14;;;;;;;8.13;4.78;;;;;;;16.19;55.92;100314.56;4492609;31;33020;-69
2022/10/12 00:53:04;;;;;;;7.43;4.87;;;;;;;16.15;55.78;100318.53;4485667;31;33961;-69
2022/10/12 00:55:35;;;;;;;4.45;3.33;;;;;;;16.15;55.88;100315.84;4497752;31;33531;-69
2022/10/12 00:58:05;;;;;;;5.47;4.03;;;;;;;16.09;56.01;100319.09;4488512;31;33710;-69
2022/10/12 01:00:33;;;;;;;9.45;5.95;;;;;;;16.00;56.22;100320.75;4489245;31;35181;-67
2022/10/12 01:03:01;;;;;;;8.82;4.93;;;;;;;16.01;56.13;100319.75;4493171;31;32298;-69
2022/10/12 01:05:29;;;;;;;6.25;5.12;;;;;;;16.07;55.83;100321.91;4484172;31;32860;-69
2022/10/12 01:07:58;;;;;;;8.85;4.62;;;;;;;16.03;56.00;100318.63;4489347;31;33790;-69
2022/10/12 01:10:26;;;;;;;5.90;3.67;;;;;;;15.99;56.02;100324.44;4493195;31;33888;-70
2022/10/12 01:12:53;;;;;;;5.90;3.08;;;;;;;15.98;55.80;100323.56;4494709;31;33636;-70
2022/10/12 01:15:22;;;;;;;6.40;4.28;;;;;;;16.04;55.55;100333.84;4492040;31;32464;-70
2022/10/12 01:17:52;;;;;;;6.53;5.03;;;;;;;16.00;55.64;100331.56;4488288;31;35021;-70
2022/10/12 01:20:25;;;;;;;6.70;5.30;;;;;;;16.09;55.56;100336.13;4489721;31;33557;-70
2022/10/12 01:22:59;;;;;;;6.68;3.30;;;;;;;16.03;55.77;100344.78;4492385;31;32300;-71
2022/10/12 01:26:00;;;;;;;9.02;4.90;;;;;;;15.94;55.80;100342.88;4487033;31;34263;-71
2022/10/12 01:28:44;;;;;;;5.65;3.87;;;;;;;16.08;55.33;100342.50;4491373;31;34003;-71
2022/10/12 01:31:39;;;;;;;8.55;5.18;;;;;;;16.11;55.34;100342.25;4483658;31;33743;-70
2022/10/12 01:34:18;;;;;;;9.73;6.10;;;;;;;15.99;55.83;100346.06;4490920;31;33975;-70
2022/10/12 01:36:50;;;;;;;5.78;4.32;;;;;;;15.81;56.78;100340.41;4492832;31;33386;-70
2022/10/12 01:39:26;;;;;;;8.63;4.32;;;;;;;15.98;56.32;100347.03;4491020;31;32668;-70
2022/10/12 01:41:56;;;;;;;7.80;5.35;;;;;;;16.04;56.27;100350.03;4486961;31;32486;-70
2022/10/12 01:44:25;;;;;;;5.47;3.78;;;;;;;16.06;56.30;100342.66;4482124;31;33142;-70
2022/10/12 01:46:53;;;;;;;7.43;4.12;;;;;;;16.10;56.51;100353.19;4484997;31;32755;-71
2022/10/12 01:49:27;;;;;;;10.52;4.32;;;;;;;16.18;56.22;100345.25;4489550;31;33833;-71
2022/10/12 01:52:20;;;;;;;7.80;6.30;;;;;;;16.17;56.22;100354.34;4491620;31;33479;-70
2022/10/12 01:54:54;;;;;;;6.97;4.82;;;;;;;16.26;55.89;100350.84;4486874;31;33167;-70
2022/10/12 01:57:39;;;;;;;7.85;5.20;;;;;;;16.24;56.10;100358.22;4496613;31;31898;-71
2022/10/12 02:00:10;;;;;;;9.10;5.53;;;;;;;16.25;56.38;100354.53;4486458;31;33744;-70
2022/10/12 02:02:56;;;;;;;5.68;4.47;;;;;;;16.24;56.51;100358.22;4488062;31;32742;-71
2022/10/12 02:06:02;;;;;;;13.05;5.82;;;;;;;16.21;56.32;100361.19;4491912;31;34092;-71
2022/10/12 02:08:51;;;;;;;8.43;4.77;;;;;;;16.13;56.41;100363.72;4479642;31;33268;-70
2022/10/12 02:11:20;;;;;;;5.03;3.72;;;;;;;16.03;56.59;100352.87;4491469;31;32371;-70
2022/10/12 02:13:53;;;;;;;10.20;5.35;;;;;;;16.03;56.68;100351.03;4489971;31;32615;-70
2022/10/12 02:16:26;;;;;;;5.40;3.75;;;;;;;16.09;56.37;100346.09;4493081;31;32312;-70
2022/10/12 02:18:55;;;;;;;6.00;4.57;;;;;;;16.15;56.04;100348.25;4484420;31;34499;-70
2022/10/12 02:21:30;;;;;;;7.57;4.72;;;;;;;16.13;56.12;100348.38;4484686;31;33816;-71
2022/10/12 02:23:59;;;;;;;;;;;;;;;16.19;56.05;100347.84;4481313;31;33813;-70
2022/10/12 02:26:27;;;;;;;9.23;5.55;;;;;;;16.21;56.32;100348.56;4488031;31;33948;-70
2022/10/12 02:28:55;;;;;;;7.25;5.00;;;;;;;16.22;56.26;100350.25;4485168;31;33425;-69
2022/10/12 02:31:34;;;;;;;9.70;4.80;;;;;;;16.25;56.26;100349.16;4489092;31;34933;-70
2022/10/12 02:34:45;;;;;;;7.28;6.25;;;;;;;16.21;56.21;100342.28;4494022;31;35093;-70
2022/10/12 02:37:22;;;;;;;7.87;5.45;;;;;;;16.15;56.54;100350.94;4421328;32;33123;-70
2022/10/12 02:39:53;;;;;;;8.93;5.07;;;;;;;16.21;56.18;100345.87;4421709;32;33278;-69
2022/10/12 02:42:25;;;;;;;6.82;4.12;;;;;;;16.22;56.19;100333.22;4460169;32;34440;-69
2022/10/12 02:44:54;;;;;;;19.62;5.20;;;;;;;16.21;56.47;100340.47;4487202;31;33038;-69
2022/10/12 02:47:23;;;;;;;7.18;5.53;;;;;;;16.16;56.72;100342.69;4497815;31;32774;-69
2022/10/12 02:49:51;;;;;;;8.65;5.97;;;;;;;16.26;56.60;100340.03;4490361;31;33450;-69
2022/10/12 02:52:19;;;;;;;9.13;5.35;;;;;;;16.21;56.98;100347.69;4482428;31;33499;-70
2022/10/12 02:54:47;;;;;;;7.35;5.25;;;;;;;16.26;57.04;100345.44;4496929;31;32940;-69
2022/10/12 02:57:14;;;;;;;9.07;5.87;;;;;;;16.29;57.16;100356.81;4499189;31;33796;-69
2022/10/12 02:59:42;;;;;;;9.60;5.55;;;;;;;16.32;56.94;100353.00;4488771;31;33386;-67
2022/10/12 03:02:09;;;;;;;9.00;5.05;;;;;;;16.29;56.20;100346.00;4486857;31;32631;-67
2022/10/12 03:04:37;;;;;;;7.72;4.28;;;;;;;16.27;55.98;100353.38;4486290;31;32778;-67
2022/10/12 03:07:05;;;;;;;7.50;5.32;;;;;;;16.23;55.91;100348.41;4496372;31;33897;-68
2022/10/12 03:09:32;;;;;;;6.72;4.15;;;;;;;16.20;55.88;100349.53;4491542;31;31975;-68
2022/10/12 03:11:59;;;;;;;8.13;5.68;;;;;;;16.17;55.93;100347.09;4491747;31;35132;-67
2022/10/12 03:14:27;;;;;;;6.32;5.07;;;;;;;16.17;55.86;100347.09;4493568;31;33952;-66
2022/10/12 03:16:55;;;;;;;8.48;6.30;;;;;;;16.15;56.04;100357.22;4493404;31;34941;-66
2022/10/12 03:19:22;;;;;;;6.65;4.95;;;;;;;16.17;55.64;100357.91;4486602;31;33033;-66
2022/10/12 03:21:50;;;;;;;8.73;5.00;;;;;;;16.18;55.57;100362.34;4486155;31;34777;-67
2022/10/12 03:24:17;;;;;;;19.37;6.37;;;;;;;16.16;55.42;100358.91;4494443;31;33777;-68
2022/10/12 03:26:45;;;;;;;8.07;5.25;;;;;;;16.04;55.79;100355.44;4495314;31;33855;-68
2022/10/12 03:29:12;;;;;;;11.80;5.12;;;;;;;16.10;55.58;100354.03;4490732;31;33863;-67
2022/10/12 03:31:40;;;;;;;8.15;4.68;;;;;;;16.03;55.89;100353.72;4494295;31;33771;-66
2022/10/12 03:34:07;;;;;;;10.18;7.12;;;;;;;15.79;56.80;100358.56;4497851;31;33637;-67
2022/10/12 03:36:35;;;;;;;8.90;5.57;;;;;;;15.77;56.93;100355.16;4498011;31;33582;-65
2022/10/12 03:39:02;;;;;;;10.15;5.12;;;;;;;15.79;56.63;100354.06;4496752;31;31838;-65
2022/10/12 03:41:30;;;;;;;8.07;5.43;;;;;;;15.82;56.69;100359.16;4497857;31;32630;-68
2022/10/12 03:43:57;;;;;;;9.85;5.40;;;;;;;15.80;56.85;100361.16;4497776;31;34254;-69
2022/10/12 03:46:25;;;;;;;9.13;5.10;;;;;;;15.92;56.36;100345.75;4489406;31;34667;-69
2022/10/12 03:48:52;;;;;;;9.15;5.93;;;;;;;15.93;56.24;100355.53;4492204;31;34097;-68
2022/10/12 03:51:20;;;;;;;7.00;4.78;;;;;;;15.88;56.63;100355.06;4496407;31;34775;-69
2022/10/12 03:53:48;;;;;;;7.43;5.40;;;;;;;15.90;56.69;100358.50;4496523;31;34099;-68
2022/10/12 03:56:15;;;;;;;10.80;6.37;;;;;;;15.92;56.85;100351.12;4484586;31;32506;-69
2022/10/12 03:58:43;;;;;;;12.88;6.15;;;;;;;15.98;57.02;100350.56;4491631;31;34395;-69
2022/10/12 04:01:10;;;;;;;8.27;5.00;;;;;;;16.05;57.34;100350.88;4484191;31;32641;-69
2022/10/12 04:03:38;;;;;;;7.43;4.70;;;;;;;16.11;57.25;100354.91;4495309;31;35210;-68
2022/10/12 04:06:05;;;;;;;7.45;4.70;;;;;;;16.09;57.26;100346.09;4489578;31;31325;-67
2022/10/12 04:08:33;;;;;;;8.43;5.12;;;;;;;16.19;56.86;100342.44;4494165;31;33497;-68
2022/10/12 04:11:01;;;;;;;5.93;4.60;;;;;;;16.19;56.91;100346.97;4484621;31;34990;-68
2022/10/12 04:13:28;;;;;;;14.52;7.32;;;;;;;16.26;56.78;100348.13;4490284;31;32979;-68
2022/10/12 04:16:00;;;;;;;8.48;5.62;;;;;;;16.20;57.03;100354.09;4485403;31;34768;-69
2022/10/12 04:18:28;;;;;;;9.60;6.07;;;;;;;16.25;56.49;100352.69;4488687;31;33656;-69
2022/10/12 04:20:56;;;;;;;5.85;4.72;;;;;;;16.24;56.37;100350.09;4491095;31;32915;-69
2022/10/12 04:23:23;;;;;;;7.82;5.85;;;;;;;16.32;56.32;100353.00;4481530;31;33998;-69
2022/10/12 04:25:51;;;;;;;5.40;3.53;;;;;;;16.34;56.57;100356.44;4487599;31;32169;-68
2022/10/12 04:28:19;;;;;;;10.55;4.82;;;;;;;16.30;56.53;100354.97;4485860;31;33183;-68
2022/10/12 04:30:46;;;;;;;11.95;6.53;;;;;;;16.37;56.09;100352.56;4490759;31;33406;-68
2022/10/12 04:33:14;;;;;;;11.95;4.82;;;;;;;16.34;56.31;100353.72;4494729;31;32872;-69
2022/10/12 04:35:42;;;;;;;6.32;3.70;;;;;;;16.33;56.51;100359.25;4489937;31;33577;-69
2022/10/12 04:38:09;;;;;;;10.63;7.32;;;;;;;16.34;56.02;100358.25;4487355;31;33182;-69
2022/10/12 04:40:37;;;;;;;13.52;9.05;;;;;;;16.30;55.87;100357.66;4496391;31;32619;-69
2022/10/12 04:43:04;;;;;;;7.85;5.28;;;;;;;16.38;55.86;100359.72;4497590;31;34015;-69
2022/10/12 04:45:32;;;;;;;11.80;6.75;;;;;;;16.38;56.28;100357.84;4497151;31;34318;-69
2022/10/12 04:48:00;;;;;;;7.97;4.85;;;;;;;16.22;56.56;100362.91;4497294;31;32194;-69
2022/10/12 04:50:27;;;;;;;7.87;4.78;;;;;;;16.36;56.06;100364.38;4496834;31;35020;-69
2022/10/12 04:52:56;;;;;;;9.43;6.00;;;;;;;16.35;55.83;100358.13;4498118;31;34406;-69
2022/10/12 04:55:24;;;;;;;11.70;7.60;;;;;;;16.30;56.11;100363.06;4497199;31;32021;-69
2022/10/12 04:57:52;;;;;;;9.82;5.30;;;;;;;16.36;55.72;100367.94;4495839;31;32133;-69
2022/10/12 05:00:19;;;;;;;10.30;6.07;;;;;;;16.41;56.34;100365.69;4497520;31;32684;-68
2022/10/12 05:02:47;;;;;;;12.63;6.20;;;;;;;16.35;56.02;100368.94;4488769;31;35285;-69
2022/10/12 05:05:14;;;;;;;9.13;5.75;;;;;;;16.38;55.77;100368.66;4485782;31;33417;-69
2022/10/12 05:07:42;;;;;;;9.00;5.50;;;;;;;16.40;55.64;100371.22;4493278;31;32177;-69
2022/10/12 05:10:09;;;;;;;16.90;6.47;;;;;;;16.33;55.98;100368.19;4483515;31;33645;-69
2022/10/12 05:12:37;;;;;;;15.07;5.75;;;;;;;16.36;55.46;100372.47;4488282;31;32408;-69
2022/10/12 05:15:05;;;;;;;5.28;4.20;;;;;;;16.38;55.76;100376.78;4493001;31;35020;-68
2022/10/12 05:17:33;;;;;;;8.40;5.50;;;;;;;16.32;55.90;100377.31;4489384;31;33516;-66
2022/10/12 05:20:00;;;;;;;7.53;4.68;;;;;;;16.37;55.60;100375.06;4493497;31;35369;-67
2022/10/12 05:22:28;;;;;;;7.12;4.07;;;;;;;16.39;55.35;100373.06;4494701;31;34926;-67
2022/10/12 05:24:55;;;;;;;9.27;6.93;;;;;;;16.37;55.29;100375.06;4484880;31;33461;-67
2022/10/12 05:27:23;;;;;;;10.25;6.55;;;;;;;16.28;55.93;100378.59;4484381;31;32885;-67
2022/10/12 05:29:51;;;;;;;13.27;7.75;;;;;;;16.29;55.85;100381.12;4489269;31;34029;-66
2022/10/12 05:32:18;;;;;;;10.27;6.22;;;;;;;16.31;56.19;100378.31;4487268;31;32748;-69
2022/10/12 05:34:46;;;;;;;7.68;6.03;;;;;;;16.33;56.41;100383.56;4495914;31;32630;-68
2022/10/12 05:37:13;;;;;;;13.43;6.30;;;;;;;16.40;56.32;100380.16;4494312;31;33109;-68
2022/10/12 05:39:41;;;;;;;19.92;8.65;;;;;;;16.45;56.32;100380.63;4498917;31;34016;-69
2022/10/12 05:42:09;;;;;;;10.52;7.12;;;;;;;16.48;56.55;100384.91;4497896;31;34130;-68
2022/10/12 05:44:36;;;;;;;8.98;5.62;;;;;;;16.56;56.70;100385.06;4490422;31;34584;-68
2022/10/12 05:47:04;;;;;;;10.65;7.85;;;;;;;16.58;56.90;100391.19;4497599;31;31858;-68
2022/10/12 05:49:32;;;;;;;13.18;6.28;;;;;;;16.70;57.10;100394.66;4494838;31;34003;-67
2022/10/12 05:51:59;;;;;;;9.93;6.07;;;;;;;16.74;57.29;100394.22;4489724;31;34030;-66
2022/10/12 05:54:27;;;;;;;11.10;7.57;;;;;;;16.86;57.30;100392.28;4496793;31;34599;-68
2022/10/12 05:56:54;;;;;;;14.90;6.75;;;;;;;16.94;57.29;100397.00;4497596;31;32094;-67
2022/10/12 05:59:22;;;;;;;8.75;7.32;;;;;;;16.95;57.71;100399.56;4483687;31;33564;-67
2022/10/12 06:01:50;;;;;;;8.27;5.87;;;;;;;17.12;57.55;100395.31;4487913;31;34896;-68
2022/10/12 06:04:18;;;;;;;7.28;5.03;;;;;;;17.22;57.86;100395.31;4497320;31;33465;-67
2022/10/12 06:06:45;;;;;;;11.32;7.15;;;;;;;17.24;57.94;100404.16;4498300;31;34170;-68
2022/10/12 06:09:12;;;;;;;23.17;7.80;;;;;;;17.44;57.72;100402.31;4484731;31;34643;-68
2022/10/12 06:11:40;;;;;;;25.02;7.43;;;;;;;17.55;57.82;100401.28;4491432;31;33854;-68
2022/10/12 06:14:08;;;;;;;16.92;9.07;;;;;;;17.70;57.56;100410.69;4488912;31;32720;-68
2022/10/12 06:16:35;;;;;;;16.02;10.25;;;;;;;17.78;57.57;100408.12;4488210;31;33228;-68
2022/10/12 06:19:03;;;;;;;15.32;8.05;;;;;;;17.83;57.63;100411.28;4492635;31;32651;-68
2022/10/12 06:21:30;;;;;;;18.23;9.50;;;;;;;17.56;57.47;100411.13;4490399;31;32857;-68
2022/10/12 06:24:01;;;;;;;12.60;8.98;;;;;;;17.78;56.35;100413.53;4485365;31;34028;-67
2022/10/12 06:26:29;;;;;;;15.07;7.93;;;;;;;17.63;55.81;100409.56;4491700;31;33315;-68
2022/10/12 06:28:56;;;;;;;8.60;5.95;;;;;;;17.60;55.23;100416.13;4494797;31;32756;-68
2022/10/12 06:31:24;;;;;;;11.45;7.07;;;;;;;17.55;56.09;100417.53;4484335;31;34932;-68
2022/10/12 06:33:52;;;;;;;13.27;8.73;;;;;;;17.66;55.33;100415.53;4486162;31;33182;-68
2022/10/12 06:36:20;;;;;;;9.82;6.15;;;;;;;17.57;55.32;100416.41;4495576;31;33529;-68
2022/10/12 06:38:47;;;;;;;11.43;7.68;;;;;;;17.70;54.78;100421.53;4489241;31;34928;-69
2022/10/12 06:41:15;;;;;;;17.37;8.75;;;;;;;17.58;55.60;100425.38;4498020;31;35196;-68
2022/10/12 06:43:42;;;;;;;11.23;7.70;;;;;;;17.46;56.23;100425.53;4496410;31;33997;-69
2022/10/12 06:46:10;;;;;;;11.82;6.60;;;;;;;17.64;55.96;100430.22;4486332;31;32233;-68
2022/10/12 06:48:38;;;;;;;16.98;9.32;;;;;;;17.79;54.70;100423.41;4483831;31;32067;-68
2022/10/12 06:51:05;;;;;;;8.63;6.05;;;;;;;17.70;54.58;100424.22;4491219;31;34035;-68
2022/10/12 06:53:33;;;;;;;8.70;5.97;;;;;;;17.94;54.02;100429.19;4493718;31;33496;-66
2022/10/12 06:56:08;;;;;;;18.50;7.65;;;;;;;17.92;53.76;100429.34;4484103;31;33120;-65
2022/10/12 06:58:36;;;;;;;12.25;6.57;;;;;;;17.87;54.10;100434.34;4484844;31;33747;-65
2022/10/12 07:01:06;;;;;;;7.22;5.25;;;;;;;17.95;53.74;100439.06;4485667;31;35658;-66
2022/10/12 07:03:33;;;;;;;7.40;5.45;;;;;;;17.93;53.48;100436.47;4491252;31;32523;-66
2022/10/12 07:06:09;;;;;;;7.78;5.18;;;;;;;17.97;53.38;100438.88;4484509;31;33212;-66
2022/10/12 07:08:39;;;;;;;13.00;6.95;;;;;;;18.10;53.32;100439.44;4496649;31;32573;-66
2022/10/12 07:11:09;;;;;;;9.90;6.30;;;;;;;18.14;53.34;100435.44;4486062;31;35391;-67
2022/10/12 07:13:36;;;;;;;20.20;7.20;;;;;;;17.89;53.97;100436.91;4494841;31;34869;-66
2022/10/12 07:16:04;;;;;;;21.55;7.05;;;;;;;17.67;54.79;100438.91;4482969;31;33072;-66
2022/10/12 07:18:32;;;;;;;11.82;6.65;;;;;;;18.08;53.67;100447.72;4491489;31;34901;-65
2022/10/12 07:21:01;;;;;;;13.27;7.93;;;;;;;18.22;53.56;100432.84;4495839;31;33688;-66
2022/10/12 07:23:30;;;;;;;9.93;6.43;;;;;;;18.12;52.62;100429.31;4495508;31;34532;-66
2022/10/12 07:25:58;;;;;;;8.43;5.15;;;;;;;17.91;53.38;100435.78;4497092;31;34327;-65
2022/10/12 07:28:26;;;;;;;7.05;4.03;;;;;;;17.80;53.27;100425.09;4492259;31;34705;-66
2022/10/12 07:30:54;;;;;;;6.68;4.78;;;;;;;18.12;52.00;100424.75;4496224;31;35037;-66
2022/10/12 07:33:21;;;;;;;11.35;5.85;;;;;;;17.99;51.66;100434.19;4485293;31;34869;-66
2022/10/12 07:35:55;;;;;;;9.13;4.60;;;;;;;17.71;52.19;100431.34;4494645;31;35120;-66
2022/10/12 07:38:43;;;;;;;6.70;5.10;;;;;;;18.01;51.72;100427.63;4488889;31;32273;-66
2022/10/12 07:41:11;;;;;;;7.62;4.97;;;;;;;18.01;51.85;100434.88;4485297;31;34337;-65
2022/10/12 07:43:39;;;;;;;9.10;4.85;;;;;;;17.86;51.84;100432.66;4487839;31;33843;-65
2022/10/12 07:46:07;;;;;;;6.85;4.10;;;;;;;17.94;51.49;100437.31;4497747;31;34215;-65
2022/10/12 07:48:34;;;;;;;16.27;5.18;;;;;;;18.00;51.52;100427.75;4493595;31;34993;-66
2022/10/12 07:51:07;;;;;;;11.35;6.97;;;;;;;17.66;52.00;100437.19;4487047;31;33807;-66
2022/10/12 07:53:35;;;;;;;8.65;5.85;;;;;;;17.98;51.30;100435.16;4495788;31;33251;-66
2022/10/12 07:56:05;;;;;;;11.43;6.75;;;;;;;18.08;51.03;100438.75;4496604;31;33189;-65
2022/10/12 07:58:32;;;;;;;9.27;5.03;;;;;;;18.32;50.90;100433.66;4493637;31;33892;-65
2022/10/12 08:01:04;;;;;;;12.43;6.53;;;;;;;18.00;50.91;100436.75;4493006;31;35189;-65
2022/10/12 08:03:32;;;;;;;13.05;6.68;;;;;;;18.01;51.32;100435.75;4487663;31;34796;-66
2022/10/12 08:06:10;;;;;;;8.18;4.50;;;;;;;17.91;51.38;100432.19;4487403;31;33397;-65
2022/10/12 08:08:38;;;;;;;11.73;6.85;;;;;;;18.28;49.65;100437.69;4486974;31;33691;-66
2022/10/12 08:11:06;;;;;;;10.65;7.37;;;;;;;17.87;50.69;100431.62;4492283;31;32830;-66
2022/10/12 08:13:34;;;;;;;11.52;6.35;;;;;;;18.13;50.77;100437.28;4484258;31;35020;-65
2022/10/12 08:16:03;;;;;;;9.60;6.35;;;;;;;18.38;50.27;100434.94;4489581;31;33144;-65
2022/10/12 08:18:31;;;;;;;11.05;6.03;;;;;;;18.50;49.99;100430.19;4488042;31;35088;-66
2022/10/12 08:20:58;;;;;;;7.78;4.75;;;;;;;18.63;49.82;100433.41;4489956;31;32523;-66
2022/10/12 08:23:26;;;;;;;18.67;7.20;;;;;;;18.83;49.81;100428.75;4487161;31;32525;-66
2022/10/12 08:25:57;;;;;;;9.50;5.57;;;;;;;18.74;49.48;100432.38;4489575;31;33684;-66
2022/10/12 08:28:24;;;;;;;9.98;6.43;;;;;;;18.59;49.39;100432.00;4483894;31;34172;-66
2022/10/12 08:30:52;;;;;;;11.40;6.18;;;;;;;18.84;49.66;100436.75;4485030;31;34934;-66
2022/10/12 08:33:19;;;;;;;7.43;5.07;;;;;;;19.05;49.38;100433.75;4489972;31;34855;-66
2022/10/12 08:35:48;;;;;;;10.48;6.00;;;;;;;19.00;49.04;100436.06;4488976;31;33895;-66
2022/10/12 08:38:15;;;;;;;10.68;6.07;;;;;;;19.17;49.02;100428.13;4497510;31;34732;-66
2022/10/12 08:40:51;;;;;;;18.55;6.82;;;;;;;18.70;48.58;100428.22;4497181;31;32942;-66
2022/10/12 08:43:34;;;;;;;9.05;5.85;;;;;;;18.91;49.33;100430.72;4512413;31;33386;-66
2022/10/12 08:46:03;;;;;;;9.55;5.72;;;;;;;18.99;48.05;100422.69;4499689;31;32063;-65
2022/10/12 08:48:43;;;;;;;9.18;6.32;;;;;;;19.17;47.58;100420.84;4491159;31;32869;-66
2022/10/12 08:51:18;;;;;;;10.48;6.43;;;;;;;19.01;48.20;100426.94;4483545;32;35218;-66
2022/10/12 08:53:53;;;;;;;28.87;8.18;;;;;;;19.21;48.38;100419.53;4488134;31;34311;-65
2022/10/12 08:56:21;;;;;;;7.82;5.40;;;;;;;19.16;49.17;100427.25;4501203;31;31626;-67
2022/10/12 08:58:50;;;;;;;10.10;6.97;;;;;;;19.37;48.33;100432.41;4494703;31;34979;-67
2022/10/12 09:01:26;;;;;;;10.57;6.68;;;;;;;19.52;48.00;100435.44;4496080;31;35134;-68
2022/10/12 09:04:08;;;;;;;14.10;7.60;;;;;;;19.30;48.73;100434.03;4486520;31;33666;-67
2022/10/12 09:06:46;;;;;;;14.70;8.88;;;;;;;19.24;48.19;100430.06;4485869;31;33248;-68
2022/10/12 09:09:37;;;;;;;10.52;7.10;;;;;;;19.50;47.90;100430.16;4483374;31;33735;-68
2022/10/12 09:12:10;;;;;;;;;;;;;;;19.52;47.97;100430.00;4484611;31;136589;-68
2022/10/12 09:14:38;;;;;;;12.85;7.10;;;;;;;19.58;46.65;100429.34;4499048;31;34525;-68
2022/10/12 09:17:22;;;;;;;10.27;6.25;;;;;;;19.15;48.84;100430.13;4489728;31;34664;-68
2022/10/12 09:20:07;;;;;;;13.20;7.35;;;;;;;19.20;48.71;100427.84;4482982;31;33878;-68
2022/10/12 09:22:34;;;;;;;12.52;7.25;;;;;;;19.53;48.21;100431.72;4485427;31;34097;-66
2022/10/12 09:25:02;;;;;;;17.75;7.45;;;;;;;19.35;48.51;100430.84;4485223;31;34683;-66
2022/10/12 09:27:30;;;;;;;13.35;8.23;;;;;;;19.54;48.10;100433.41;4499236;31;34401;-66
2022/10/12 09:30:01;;;;;;;13.40;6.87;;;;;;;19.51;47.30;100431.84;4494468;31;32564;-66
2022/10/12 09:32:51;;;;;;;8.48;5.82;;;;;;;19.39;47.81;100432.22;4489368;31;33862;-66
2022/10/12 09:35:19;;;;;;;11.23;5.72;;;;;;;19.45;48.02;100435.19;4488839;31;32102;-67
2022/10/12 09:37:50;;;;;;;8.50;5.82;;;;;;;19.39;48.70;100421.38;4477507;31;32946;-67
2022/10/12 09:40:35;;;;;;;12.48;7.00;;;;;;;19.45;48.27;100428.91;4489804;31;35073;-67
2022/10/12 09:43:03;;;;;;;9.05;6.05;;;;;;;19.12;49.17;100434.00;4486865;31;33886;-66
2022/10/12 09:45:32;;;;;;;7.25;4.78;;;;;;;18.85;49.44;100432.19;4497514;31;33728;-66
2022/10/12 09:48:14;;;;;;;10.18;6.87;;;;;;;18.66;49.65;100435.81;4488036;31;33127;-67
2022/10/12 09:50:46;;;;;;;8.80;5.97;;;;;;;18.70;50.30;100437.22;4488107;31;33868;-65
2022/10/12 09:53:21;;;;;;;11.32;7.25;;;;;;;18.87;49.75;100426.59;4493746;31;32790;-65
2022/10/12 09:55:54;;;;;;;13.82;5.43;;;;;;;19.13;49.12;100432.12;4495614;31;33783;-66
2022/10/12 09:58:24;;;;;;;9.07;5.37;;;;;;;19.27;48.93;100429.75;4485293;31;34453;-65
2022/10/12 10:01:18;;;;;;;7.95;4.03;;;;;;;19.18;49.84;100432.53;4492157;31;34893;-65
2022/10/12 10:04:09;;;;;;;10.07;4.15;;;;;;;19.71;48.63;100435.31;4488913;31;34567;-65
2022/10/12 10:06:38;;;;;;;8.27;5.00;;;;;;;19.03;49.74;100429.50;4486626;31;34925;-66
2022/10/12 10:09:28;;;;;;;7.03;4.30;;;;;;;19.58;48.30;100432.06;4484446;31;33233;-65
2022/10/12 10:11:58;;;;;;;10.38;6.68;;;;;;;19.94;47.30;100434.81;4494419;31;33400;-65
2022/10/12 10:14:25;;;;;;;11.88;6.62;;;;;;;19.94;47.17;100432.09;4488912;31;32735;-65
2022/10/12 10:16:53;;;;;;;13.70;6.85;;;;;;;19.63;48.17;100429.75;4489249;31;34491;-64
2022/10/12 10:19:23;;;;;;;10.68;6.20;;;;;;;19.57;48.96;100430.37;4489101;31;34278;-65
2022/10/12 10:21:52;;;;;;;12.70;7.37;;;;;;;19.79;48.00;100429.06;4484669;31;32661;-65
2022/10/12 10:24:30;;;;;;;8.05;5.50;;;;;;;19.88;47.21;100430.84;4485596;31;33784;-65
2022/10/12 10:27:00;;;;;;;11.45;6.80;;;;;;;19.71;47.79;100429.87;4485177;31;34883;-65
2022/10/12 10:29:40;;;;;;;10.77;8.15;;;;;;;19.89;47.17;100426.25;4487470;31;34906;-65
2022/10/12 10:32:22;;;;;;;12.30;7.82;;;;;;;19.97;47.60;100429.91;4491719;31;34024;-65
2022/10/12 10:35:00;;;;;;;8.35;4.72;;;;;;;20.07;46.99;100432.50;4486111;31;33819;-65
2022/10/12 10:37:28;;;;;;;15.02;4.65;;;;;;;20.40;47.00;100433.56;4489175;31;32563;-65
2022/10/12 10:39:57;;;;;;;10.88;5.68;;;;;;;20.35;46.67;100432.31;4499337;31;34438;-65
2022/10/12 10:42:27;;;;;;;13.18;6.95;;;;;;;20.50;45.56;100436.16;4500500;31;32183;-65
2022/10/12 10:45:01;;;;;;;8.82;5.30;;;;;;;20.36;46.54;100432.19;4496341;31;32297;-65
2022/10/12 10:47:31;;;;;;;9.02;4.72;;;;;;;20.39;46.01;100428.28;4507789;31;33493;-65
2022/10/12 10:50:01;;;;;;;9.35;5.18;;;;;;;20.48;45.95;100432.72;4500885;31;33474;-65
2022/10/12 10:52:33;;;;;;;9.23;5.37;;;;;;;20.49;45.01;100429.03;4490905;31;33961;-65
2022/10/12 10:55:21;;;;;;;9.60;6.15;;;;;;;20.38;45.37;100429.28;4493581;31;34982;-65
2022/10/12 10:57:51;;;;;;;8.35;5.03;;;;;;;20.44;44.88;100424.06;4496909;31;33438;-65
2022/10/12 11:00:21;;;;;;;9.13;6.50;;;;;;;20.65;44.90;100418.25;4494282;31;33617;-65
2022/10/12 11:03:15;;;;;;;15.05;8.07;;;;;;;20.35;45.86;100419.63;4489658;31;32264;-66
2022/10/12 11:05:50;;;;;;;8.63;5.50;;;;;;;19.89;46.65;100418.97;4494407;31;34142;-66
2022/10/12 11:08:26;;;;;;;13.20;6.70;;;;;;;20.51;44.92;100423.41;4485786;31;33765;-66
2022/10/12 11:11:01;;;;;;;9.82;4.90;;;;;;;20.36;45.52;100423.19;4485688;31;32833;-66
2022/10/12 11:13:33;;;;;;;10.70;5.03;;;;;;;20.55;45.17;100420.25;4492761;31;34992;-65
2022/10/12 11:16:21;;;;;;;10.93;5.93;;;;;;;20.32;45.40;100411.78;4489924;31;33916;-66
2022/10/12 11:18:54;;;;;;;10.52;4.53;;;;;;;20.52;45.09;100420.56;4484941;31;33504;-65
2022/10/12 11:21:29;;;;;;;11.20;6.47;;;;;;;20.20;44.90;100421.22;4488274;31;34349;-66
2022/10/12 11:24:16;;;;;;;7.60;4.00;;;;;;;20.37;44.92;100427.59;4485439;31;32556;-66
2022/10/12 11:26:49;;;;;;;9.05;5.50;;;;;;;20.42;44.89;100414.38;4484260;31;32953;-66
2022/10/12 11:29:16;;;;;;;8.25;4.43;;;;;;;20.66;44.76;100416.37;4484643;31;34983;-66
2022/10/12 11:32:17;;;;;;;9.75;6.90;;;;;;;20.71;44.80;100416.75;4485816;31;34333;-66
2022/10/12 11:34:52;;;;;;;9.25;5.25;;;;;;;20.73;44.43;100417.41;4486437;31;34997;-66
2022/10/12 11:37:27;;;;;;;5.87;4.07;;;;;;;21.02;43.89;100414.28;4484032;31;35129;-66
2022/10/12 11:39:56;;;;;;;10.80;6.70;;;;;;;21.15;43.79;100401.06;4492088;31;33659;-66
2022/10/12 11:42:31;;;;;;;7.82;3.42;;;;;;;21.15;43.27;100406.50;4505329;31;33198;-67